Terminal Aerodrome Forecast
Issued by NWS Sioux Falls, SD

Home | Current Version | Previous Version | Graphics & Text | Print | Product List | Glossary Off
Versions: 1 2 3 4 5 6 7 8 9 10 11 12 13 14 15 16 17 18 19 20 21

000
FTUS43 KFSD 231100 RRA
TAFHON
TAF
KHON 231148Z 2312/2412 12004KT P6SM BKN250
     FM231600 14008KT P6SM SCT250
     FM240200 14009KT P6SM SCT060 BKN100
     FM240500 13008KT P6SM BKN050 BKN100 PROB30 2406/2410 5SM -SHRA
      BKN040=

USA.gov is the U.S. government's official web portal to all federal, state and local government web resources and services.